Time;durP1;ratioP1;P1;durP2;ratioP2;P2;SDS_P1;SDS_P2;PMS_P1;PMS_P2;Temp;Humidity;BMP_temperature;BMP_pressure;BME280_temperature;BME280_humidity;BME280_pressure;Samples;Min_cycle;Max_cycle;Signal;HPM_P1;HPM_P2
2023/06/11 00:01:40;;;;;;;5.53;3.92;;;22.30;99.90;;;;;;5031344;28;20045;-73
2023/06/11 00:04:06;;;;;;;5.95;3.70;;;22.20;99.90;;;;;;5031983;28;20507;-73
2023/06/11 00:06:32;;;;;;;4.68;4.10;;;22.20;99.90;;;;;;5031614;28;20033;-73
2023/06/11 00:08:58;;;;;;;5.10;4.60;;;22.10;99.90;;;;;;5033135;28;20029;-73
2023/06/11 00:11:25;;;;;;;7.53;4.13;;;22.10;99.90;;;;;;5033044;28;20034;-73
2023/06/11 00:13:53;;;;;;;4.32;3.75;;;22.10;99.90;;;;;;5031890;28;20026;-73
2023/06/11 00:16:19;;;;;;;4.53;4.13;;;22.10;99.90;;;;;;5031058;28;20033;-73
2023/06/11 00:18:46;;;;;;;5.75;4.07;;;22.10;99.90;;;;;;5032585;28;20038;-73
2023/06/11 00:21:13;;;;;;;5.18;4.68;;;21.90;99.90;;;;;;5032712;28;20486;-73
2023/06/11 00:23:39;;;;;;;5.40;3.97;;;22.00;99.90;;;;;;5048081;28;20033;-73
2023/06/11 00:26:07;;;;;;;4.70;4.18;;;22.00;99.90;;;;;;5032626;28;20390;-73
2023/06/11 00:28:33;;;;;;;4.20;3.78;;;22.00;99.90;;;;;;5031680;28;20048;-73
2023/06/11 00:31:06;;;;;;;4.63;4.15;;;22.00;99.90;;;;;;5030902;28;20037;-72
2023/06/11 00:33:32;;;;;;;4.65;3.90;;;22.00;99.90;;;;;;5031443;28;20020;-73
2023/06/11 00:35:58;;;;;;;5.25;4.10;;;22.00;99.90;;;;;;5031145;28;20041;-73
2023/06/11 00:38:25;;;;;;;6.53;4.15;;;22.00;99.90;;;;;;5032554;28;20041;-76
2023/06/11 00:40:51;;;;;;;9.27;4.10;;;21.90;99.90;;;;;;5064163;28;20030;-74
2023/06/11 00:43:21;;;;;;;9.48;3.92;;;21.90;99.90;;;;;;5032723;28;20033;-73
2023/06/11 00:45:50;;;;;;;6.05;3.85;;;21.90;99.90;;;;;;5046635;28;20045;-73
2023/06/11 00:48:20;;;;;;;6.07;4.00;;;21.90;99.90;;;;;;5044102;28;20405;-74
2023/06/11 00:50:49;;;;;;;6.07;3.78;;;21.80;99.90;;;;;;5045910;28;20093;-74
2023/06/11 00:53:17;;;;;;;8.18;4.22;;;21.80;99.90;;;;;;5014727;28;20081;-74
2023/06/11 00:55:44;;;;;;;5.03;4.15;;;21.80;99.90;;;;;;5032078;28;20033;-73
2023/06/11 00:58:13;;;;;;;7.25;3.95;;;21.70;99.90;;;;;;5032363;28;20038;-73
2023/06/11 01:00:42;;;;;;;5.72;4.00;;;21.80;99.90;;;;;;5030532;28;20056;-74
2023/06/11 01:03:10;;;;;;;3.95;3.58;;;21.80;99.90;;;;;;5031257;28;20025;-73
2023/06/11 01:05:43;;;;;;;6.30;3.72;;;21.70;99.90;;;;;;5014374;28;20494;-73
2023/06/11 01:08:12;;;;;;;4.97;3.78;;;21.70;99.90;;;;;;5031328;28;20026;-74
2023/06/11 01:10:40;;;;;;;6.25;3.78;;;21.70;99.90;;;;;;5030817;28;20074;-74
2023/06/11 01:13:06;;;;;;;5.40;3.75;;;21.70;99.90;;;;;;5014233;28;20040;-74
2023/06/11 01:15:32;;;;;;;5.32;3.75;;;21.70;99.90;;;;;;5031265;28;20041;-73
2023/06/11 01:18:23;;;;;;;5.80;3.65;;;21.70;99.90;;;;;;5017411;28;20057;-74
2023/06/11 01:20:55;;;;;;;6.85;4.38;;;21.70;99.90;;;;;;5024103;28;20029;-73
2023/06/11 01:23:55;;;;;;;4.32;3.70;;;21.60;99.90;;;;;;5037591;28;20022;-73
2023/06/11 01:26:31;;;;;;;9.02;4.03;;;21.60;99.90;;;;;;5035172;28;20531;-73
2023/06/11 01:28:58;;;;;;;5.88;3.97;;;21.50;99.90;;;;;;5037429;28;20478;-73
2023/06/11 01:31:25;;;;;;;5.53;3.75;;;21.40;99.90;;;;;;5036506;28;20048;-73
2023/06/11 01:33:51;;;;;;;4.72;3.83;;;21.40;99.90;;;;;;5037536;28;20036;-73
2023/06/11 01:36:17;;;;;;;9.57;4.05;;;21.40;99.90;;;;;;5020174;28;20045;-73
2023/06/11 01:38:44;;;;;;;7.65;4.10;;;21.30;99.90;;;;;;5037389;28;20041;-74
2023/06/11 01:41:11;;;;;;;6.45;4.03;;;21.30;99.90;;;;;;5038443;28;20029;-73
2023/06/11 01:43:37;;;;;;;6.45;4.50;;;21.30;99.90;;;;;;5038359;28;20443;-73
2023/06/11 01:46:04;;;;;;;6.95;3.90;;;21.30;99.90;;;;;;5037660;28;20043;-73
2023/06/11 01:48:30;;;;;;;5.47;4.20;;;21.30;99.90;;;;;;5051338;28;20056;-74
2023/06/11 01:50:56;;;;;;;7.85;4.13;;;21.20;99.90;;;;;;5051379;28;20029;-74
2023/06/11 01:53:22;;;;;;;7.45;4.40;;;21.30;99.90;;;;;;5036905;28;20034;-74
2023/06/11 01:55:49;;;;;;;7.13;4.30;;;21.20;99.90;;;;;;5036792;28;20032;-74
2023/06/11 01:58:16;;;;;;;8.35;4.45;;;21.20;99.90;;;;;;5020737;28;20056;-74
2023/06/11 02:00:42;;;;;;;5.78;4.03;;;21.20;99.90;;;;;;5035630;28;20037;-74
2023/06/11 02:03:09;;;;;;;6.40;4.03;;;21.20;99.90;;;;;;5038606;28;20014;-73
2023/06/11 02:05:35;;;;;;;5.43;3.85;;;21.20;99.90;;;;;;5058420;28;20358;-74
2023/06/11 02:08:01;;;;;;;7.40;4.32;;;21.20;99.90;;;;;;5035728;28;20470;-74
2023/06/11 02:10:27;;;;;;;7.68;4.50;;;21.10;99.90;;;;;;5036508;28;20032;-74
2023/06/11 02:12:53;;;;;;;4.60;4.13;;;21.10;99.90;;;;;;5035338;28;20041;-73
2023/06/11 02:15:20;;;;;;;6.72;4.22;;;21.10;99.90;;;;;;5034572;28;20037;-74
2023/06/11 02:17:46;;;;;;;6.60;4.03;;;21.10;99.90;;;;;;5035788;28;20045;-74
2023/06/11 02:20:15;;;;;;;6.38;4.72;;;21.10;99.90;;;;;;5035348;28;20030;-74
2023/06/11 02:22:41;;;;;;;5.78;4.57;;;21.10;99.90;;;;;;5051977;28;20029;-74
2023/06/11 02:25:07;;;;;;;5.53;4.45;;;21.10;99.90;;;;;;5035554;28;20041;-73
2023/06/11 02:27:33;;;;;;;6.25;4.55;;;21.00;99.90;;;;;;4999412;28;20041;-74
2023/06/11 02:29:59;;;;;;;5.78;4.97;;;21.00;99.90;;;;;;5029807;28;20033;-74
2023/06/11 02:32:26;;;;;;;7.85;4.65;;;20.90;99.90;;;;;;5030546;28;20042;-74
2023/06/11 02:34:52;;;;;;;6.68;5.03;;;21.00;99.90;;;;;;5049225;28;20033;-74
2023/06/11 02:37:18;;;;;;;5.88;4.80;;;21.00;99.90;;;;;;5034336;28;20034;-74
2023/06/11 02:39:45;;;;;;;10.55;5.10;;;20.90;99.90;;;;;;5017289;28;20140;-74
2023/06/11 02:42:11;;;;;;;6.32;4.88;;;20.90;99.90;;;;;;5034596;28;20034;-74
2023/06/11 02:44:37;;;;;;;6.43;5.18;;;21.00;99.90;;;;;;5033435;28;20032;-74
2023/06/11 02:47:03;;;;;;;8.50;5.68;;;20.90;99.90;;;;;;5018157;28;20045;-74
2023/06/11 02:49:30;;;;;;;6.82;5.50;;;20.80;99.90;;;;;;5086547;28;20037;-74
2023/06/11 02:51:56;;;;;;;10.15;6.32;;;20.80;99.90;;;;;;5039448;28;20034;-74
2023/06/11 02:54:22;;;;;;;8.68;6.28;;;20.80;99.90;;;;;;5034604;28;20030;-74
2023/06/11 02:56:48;;;;;;;9.15;6.03;;;20.80;99.90;;;;;;5032943;28;20486;-73
2023/06/11 02:59:14;;;;;;;10.05;6.32;;;20.70;99.90;;;;;;5033327;28;20049;-74
2023/06/11 03:01:40;;;;;;;12.70;6.45;;;20.70;99.90;;;;;;5015840;28;20045;-74
2023/06/11 03:04:06;;;;;;;7.53;6.38;;;20.70;99.90;;;;;;5016767;28;20049;-73
2023/06/11 03:06:33;;;;;;;11.10;7.22;;;20.70;99.90;;;;;;5033093;28;20032;-74
2023/06/11 03:08:59;;;;;;;8.73;7.43;;;20.70;99.90;;;;;;5033095;28;20382;-73
2023/06/11 03:11:25;;;;;;;7.95;6.95;;;20.60;99.90;;;;;;5032706;28;20025;-74
2023/06/11 03:13:52;;;;;;;9.40;7.03;;;20.60;99.90;;;;;;5016485;28;20033;-73
2023/06/11 03:16:18;;;;;;;10.55;7.38;;;20.60;99.90;;;;;;5032366;28;20029;-74
2023/06/11 03:18:44;;;;;;;11.95;8.40;;;20.60;99.90;;;;;;5032816;28;20073;-73
2023/06/11 03:21:10;;;;;;;10.98;6.93;;;20.60;99.90;;;;;;5016217;28;20055;-74
2023/06/11 03:23:36;;;;;;;14.15;7.75;;;20.60;99.90;;;;;;5033118;28;20041;-74
2023/06/11 03:26:03;;;;;;;10.40;7.97;;;20.50;99.90;;;;;;5032423;28;20037;-74
2023/06/11 03:28:29;;;;;;;12.23;7.20;;;20.50;99.90;;;;;;5033005;28;20029;-74
2023/06/11 03:30:55;;;;;;;9.23;7.07;;;20.50;99.90;;;;;;5033192;28;20030;-73
2023/06/11 03:33:21;;;;;;;11.93;8.07;;;20.60;99.90;;;;;;5032875;28;20029;-74
2023/06/11 03:35:47;;;;;;;12.63;8.07;;;20.60;99.90;;;;;;5033502;28;20029;-73
2023/06/11 03:38:13;;;;;;;10.43;7.50;;;20.60;99.90;;;;;;5048933;28;20057;-73
2023/06/11 03:40:39;;;;;;;11.77;7.80;;;20.60;99.90;;;;;;5047898;28;20466;-74
2023/06/11 03:43:05;;;;;;;11.50;8.05;;;20.50;99.90;;;;;;5032609;28;20040;-73
2023/06/11 03:45:31;;;;;;;11.90;7.40;;;20.40;99.90;;;;;;5033364;28;20471;-74
2023/06/11 03:47:58;;;;;;;13.52;7.90;;;20.40;99.90;;;;;;5041832;28;20049;-74
2023/06/11 03:50:24;;;;;;;13.32;8.05;;;20.40;99.90;;;;;;5053489;28;20457;-74
2023/06/11 03:52:50;;;;;;;14.30;8.27;;;20.40;99.90;;;;;;5032965;28;20052;-73
2023/06/11 03:55:16;;;;;;;10.15;8.25;;;20.40;99.90;;;;;;5032808;28;20374;-74
2023/06/11 03:57:42;;;;;;;11.90;8.00;;;20.40;99.90;;;;;;5032302;28;20042;-73
2023/06/11 04:00:09;;;;;;;9.50;7.75;;;20.40;99.90;;;;;;5032970;28;20022;-73
2023/06/11 04:02:35;;;;;;;10.65;8.07;;;20.40;99.90;;;;;;5031784;28;20037;-74
2023/06/11 04:05:01;;;;;;;11.15;7.78;;;20.40;99.90;;;;;;5032014;28;20034;-74
2023/06/11 04:07:28;;;;;;;14.57;8.43;;;20.40;99.90;;;;;;5031191;28;20064;-73
2023/06/11 04:09:54;;;;;;;14.05;8.60;;;20.30;99.90;;;;;;5014992;28;20029;-73
2023/06/11 04:12:20;;;;;;;12.95;8.63;;;20.20;99.90;;;;;;5031663;28;20725;-74
2023/06/11 04:14:46;;;;;;;11.75;8.50;;;20.20;99.90;;;;;;5013770;28;20041;-74
2023/06/11 04:17:12;;;;;;;11.80;8.45;;;20.20;99.90;;;;;;5030216;28;20040;-74
2023/06/11 04:19:38;;;;;;;11.50;8.30;;;20.20;99.90;;;;;;5032910;28;20040;-74
2023/06/11 04:22:05;;;;;;;18.83;8.50;;;20.20;99.90;;;;;;5032579;28;20029;-74
2023/06/11 04:24:31;;;;;;;11.02;8.35;;;20.20;99.90;;;;;;5032539;28;20059;-74
2023/06/11 04:26:57;;;;;;;15.80;8.60;;;20.20;99.90;;;;;;5014503;28;20506;-74
2023/06/11 04:29:23;;;;;;;12.88;8.50;;;20.20;99.90;;;;;;5031686;28;20029;-74
2023/06/11 04:31:50;;;;;;;14.45;8.20;;;20.20;99.90;;;;;;5031013;28;20505;-74
2023/06/11 04:34:20;;;;;;;12.30;8.85;;;20.20;99.90;;;;;;5031461;28;20030;-74
2023/06/11 04:36:47;;;;;;;16.60;8.60;;;20.20;99.90;;;;;;5030943;28;20060;-74
2023/06/11 04:39:14;;;;;;;12.43;8.40;;;20.20;99.90;;;;;;5031305;28;20033;-73
2023/06/11 04:41:41;;;;;;;16.05;9.02;;;20.10;99.90;;;;;;5032300;28;20025;-74
2023/06/11 04:44:08;;;;;;;13.68;9.52;;;20.10;99.90;;;;;;5032710;28;20485;-74
2023/06/11 04:46:34;;;;;;;12.25;8.88;;;20.10;99.90;;;;;;5030649;28;20042;-73
2023/06/11 04:49:02;;;;;;;16.90;9.63;;;20.10;99.90;;;;;;5050615;28;20025;-74
2023/06/11 04:51:32;;;;;;;12.85;8.70;;;20.20;99.90;;;;;;5037565;28;20462;-73
2023/06/11 04:54:07;;;;;;;12.95;8.57;;;20.20;99.90;;;;;;5046554;28;20029;-74
2023/06/11 04:56:35;;;;;;;18.17;9.40;;;20.30;99.90;;;;;;5032294;28;20029;-73
2023/06/11 04:59:03;;;;;;;16.02;9.18;;;20.40;99.90;;;;;;5031186;28;20033;-73
2023/06/11 05:01:32;;;;;;;11.30;9.18;;;20.40;99.90;;;;;;5014151;28;20034;-73
2023/06/11 05:03:58;;;;;;;11.95;9.25;;;20.50;99.90;;;;;;5015063;28;20402;-73
2023/06/11 05:06:25;;;;;;;13.35;10.10;;;20.50;99.90;;;;;;5031794;28;20032;-74
2023/06/11 05:08:52;;;;;;;14.98;10.05;;;20.60;99.90;;;;;;5030778;28;20040;-74
2023/06/11 05:11:18;;;;;;;13.02;10.13;;;20.80;99.90;;;;;;5014299;28;20146;-74
2023/06/11 05:13:44;;;;;;;15.73;9.73;;;21.00;99.90;;;;;;5014235;28;20034;-74
2023/06/11 05:16:11;;;;;;;15.00;9.73;;;21.20;99.90;;;;;;5031415;28;20025;-74
2023/06/11 05:18:37;;;;;;;16.27;9.20;;;21.30;99.90;;;;;;5030903;28;20033;-74
2023/06/11 05:21:03;;;;;;;15.20;9.32;;;21.40;99.90;;;;;;5030764;28;20026;-74
2023/06/11 05:23:31;;;;;;;11.23;9.88;;;21.50;99.90;;;;;;5030679;28;20038;-73
2023/06/11 05:26:08;;;;;;;18.55;11.05;;;21.70;99.90;;;;;;5031714;28;20026;-74
2023/06/11 05:28:34;;;;;;;11.60;9.50;;;21.80;99.90;;;;;;5032030;28;20033;-74
2023/06/11 05:31:04;;;;;;;13.50;10.52;;;21.90;99.90;;;;;;5031222;28;20037;-74
2023/06/11 05:33:31;;;;;;;15.23;10.13;;;22.00;99.90;;;;;;5014920;28;20045;-75
2023/06/11 05:35:57;;;;;;;16.40;9.50;;;22.20;99.90;;;;;;5030515;28;20029;-74
2023/06/11 05:38:24;;;;;;;15.20;9.63;;;22.30;99.90;;;;;;5030464;28;20042;-75
2023/06/11 05:40:50;;;;;;;13.05;10.38;;;22.40;99.90;;;;;;5030517;28;20018;-74
2023/06/11 05:43:16;;;;;;;16.67;11.32;;;22.60;99.90;;;;;;5030748;28;20033;-75
2023/06/11 05:45:47;;;;;;;13.98;10.88;;;22.70;99.90;;;;;;5029961;28;20030;-74
2023/06/11 05:48:13;;;;;;;14.00;11.70;;;22.70;99.90;;;;;;5043341;28;20037;-75
2023/06/11 05:50:39;;;;;;;16.73;11.25;;;22.90;99.90;;;;;;5045680;28;20493;-74
2023/06/11 05:53:05;;;;;;;13.02;11.63;;;23.00;99.90;;;;;;5014013;28;20034;-75
2023/06/11 05:55:31;;;;;;;16.23;12.73;;;23.10;99.90;;;;;;5030301;28;20398;-74
2023/06/11 05:57:57;;;;;;;12.77;11.20;;;23.20;99.90;;;;;;5031834;28;20037;-73
2023/06/11 06:00:23;;;;;;;13.75;12.32;;;23.20;99.90;;;;;;5029911;28;20025;-74
2023/06/11 06:02:50;;;;;;;18.42;13.05;;;23.20;99.90;;;;;;5031743;28;20375;-73
2023/06/11 06:05:16;;;;;;;14.98;13.45;;;23.20;99.90;;;;;;5034404;28;20124;-74
2023/06/11 06:07:42;;;;;;;18.50;13.13;;;23.20;99.90;;;;;;5035541;28;20434;-75
2023/06/11 06:10:08;;;;;;;14.02;12.55;;;23.30;99.90;;;;;;5034411;28;20029;-74
2023/06/11 06:12:34;;;;;;;12.60;10.23;;;23.40;99.90;;;;;;5035050;28;20033;-74
2023/06/11 06:15:00;;;;;;;14.20;11.65;;;23.50;99.90;;;;;;5035216;28;20355;-74
2023/06/11 06:17:26;;;;;;;14.60;10.82;;;23.60;99.90;;;;;;5033484;28;20486;-74
2023/06/11 06:19:52;;;;;;;15.93;9.65;;;23.70;99.90;;;;;;5033737;28;20037;-75
2023/06/11 06:22:18;;;;;;;15.15;10.35;;;23.80;99.90;;;;;;5033630;28;20039;-74
2023/06/11 06:24:45;;;;;;;15.98;10.50;;;23.90;99.90;;;;;;5033500;28;20497;-74
2023/06/11 06:27:11;;;;;;;16.10;11.68;;;23.90;99.90;;;;;;5033570;28;20030;-74
2023/06/11 06:29:38;;;;;;;13.35;10.43;;;23.90;99.90;;;;;;5050372;28;20053;-75
2023/06/11 06:32:06;;;;;;;11.00;9.38;;;24.00;99.90;;;;;;5033387;28;20497;-75
2023/06/11 06:34:32;;;;;;;15.32;10.95;;;24.00;99.90;;;;;;5033454;28;20399;-74
2023/06/11 06:36:58;;;;;;;10.57;9.48;;;24.10;99.90;;;;;;5016929;28;20045;-75
2023/06/11 06:39:24;;;;;;;14.70;9.80;;;24.20;99.90;;;;;;5034909;28;20049;-74
2023/06/11 06:41:50;;;;;;;14.27;9.85;;;24.30;99.90;;;;;;5016540;28;20041;-74
2023/06/11 06:44:16;;;;;;;12.18;11.07;;;24.20;99.90;;;;;;5033631;28;20490;-75
2023/06/11 06:46:42;;;;;;;10.82;9.00;;;24.20;99.90;;;;;;5032909;28;20052;-75
2023/06/11 06:49:08;;;;;;;9.73;8.73;;;24.40;99.90;;;;;;5052435;28;20484;-74
2023/06/11 06:51:36;;;;;;;12.40;8.68;;;24.60;99.90;;;;;;5041643;28;20034;-74
2023/06/11 06:54:02;;;;;;;11.18;7.90;;;24.80;99.90;;;;;;5033520;28;20022;-74
2023/06/11 06:56:28;;;;;;;9.55;7.97;;;24.60;99.90;;;;;;5033225;28;20030;-74
2023/06/11 06:58:54;;;;;;;10.70;8.38;;;24.30;99.90;;;;;;5016732;28;20049;-74
2023/06/11 07:01:20;;;;;;;10.40;8.15;;;24.40;99.90;;;;;;5032667;28;20390;-74
2023/06/11 07:03:46;;;;;;;9.00;7.28;;;24.30;99.90;;;;;;5033883;28;20029;-74
2023/06/11 07:06:12;;;;;;;12.40;7.13;;;24.30;99.90;;;;;;5032938;28;20017;-74
2023/06/11 07:08:39;;;;;;;9.18;7.18;;;24.40;99.90;;;;;;5033268;28;20036;-74
2023/06/11 07:11:05;;;;;;;8.07;6.75;;;24.60;99.90;;;;;;5033004;28;20025;-74
2023/06/11 07:13:31;;;;;;;11.65;8.27;;;24.70;99.90;;;;;;5033047;28;20048;-74
2023/06/11 07:15:57;;;;;;;10.35;7.43;;;24.90;99.90;;;;;;5031506;28;20029;-74
2023/06/11 07:18:25;;;;;;;9.88;7.00;;;24.90;99.90;;;;;;5032536;28;20041;-74
2023/06/11 07:20:51;;;;;;;10.60;7.07;;;24.90;99.90;;;;;;5032681;28;20028;-74
2023/06/11 07:23:17;;;;;;;8.43;7.53;;;25.00;99.90;;;;;;5034215;28;20029;-74
2023/06/11 07:25:43;;;;;;;10.07;6.80;;;24.90;99.90;;;;;;5032363;28;20036;-74
2023/06/11 07:28:10;;;;;;;10.73;6.88;;;24.60;99.90;;;;;;5049388;28;20056;-74
2023/06/11 07:30:36;;;;;;;9.07;6.72;;;24.60;99.90;;;;;;5033170;28;20037;-74
2023/06/11 07:33:02;;;;;;;9.45;6.63;;;24.60;99.90;;;;;;5031669;28;20044;-74
2023/06/11 07:35:28;;;;;;;9.45;6.85;;;24.50;99.90;;;;;;5033427;28;20032;-74
2023/06/11 07:37:55;;;;;;;13.00;8.38;;;24.40;99.90;;;;;;5049260;28;20386;-74
2023/06/11 07:40:21;;;;;;;8.80;7.95;;;24.30;99.90;;;;;;5033498;28;20041;-74
2023/06/11 07:42:47;;;;;;;8.60;7.78;;;24.30;99.90;;;;;;5032662;28;20485;-74
2023/06/11 07:45:14;;;;;;;7.93;7.03;;;24.30;99.90;;;;;;5015109;28;20052;-75
2023/06/11 07:47:41;;;;;;;10.85;7.43;;;24.50;99.90;;;;;;5040306;28;20044;-74
2023/06/11 07:50:08;;;;;;;11.02;7.30;;;24.60;99.90;;;;;;5068552;28;20036;-75
2023/06/11 07:52:34;;;;;;;9.85;8.00;;;24.60;99.90;;;;;;5048501;28;20045;-74
2023/06/11 07:55:00;;;;;;;9.73;7.28;;;24.60;99.90;;;;;;5048868;28;20033;-75
2023/06/11 07:57:26;;;;;;;10.07;6.80;;;24.80;99.90;;;;;;5065441;28;20368;-75
2023/06/11 07:59:53;;;;;;;10.98;7.15;;;24.90;99.90;;;;;;5033294;28;20044;-74
2023/06/11 08:02:19;;;;;;;10.00;7.45;;;24.90;99.90;;;;;;5064056;28;20037;-74
2023/06/11 08:04:45;;;;;;;9.90;7.03;;;25.00;99.90;;;;;;5065191;28;20386;-75
2023/06/11 08:07:12;;;;;;;8.63;6.50;;;25.00;99.90;;;;;;5064890;28;20034;-75
2023/06/11 08:09:38;;;;;;;9.85;6.90;;;25.00;99.90;;;;;;5033284;28;20040;-74
2023/06/11 08:12:05;;;;;;;7.05;6.05;;;25.00;99.90;;;;;;5048440;28;20056;-74
2023/06/11 08:14:35;;;;;;;10.35;5.60;;;25.10;99.90;;;;;;5031948;28;20042;-74
2023/06/11 08:17:01;;;;;;;11.68;5.93;;;25.10;99.90;;;;;;5030276;28;20048;-74
2023/06/11 08:19:27;;;;;;;8.70;6.00;;;25.10;99.90;;;;;;5031983;28;20056;-74
2023/06/11 08:21:59;;;;;;;8.30;6.70;;;25.10;99.90;;;;;;5031494;28;20033;-74
2023/06/11 08:24:25;;;;;;;6.88;5.75;;;25.10;99.90;;;;;;5031734;28;20029;-75
2023/06/11 08:26:51;;;;;;;8.65;6.85;;;24.80;99.90;;;;;;5014695;28;20524;-74
2023/06/11 08:29:18;;;;;;;7.70;6.82;;;24.70;99.90;;;;;;5031629;28;20033;-75
2023/06/11 08:31:44;;;;;;;6.78;6.15;;;24.90;99.90;;;;;;5031912;28;20033;-75
2023/06/11 08:34:10;;;;;;;6.43;5.82;;;25.20;99.90;;;;;;5031742;28;20021;-75
2023/06/11 08:36:36;;;;;;;10.00;8.68;;;25.50;99.90;;;;;;5014715;28;20041;-75
2023/06/11 08:39:03;;;;;;;8.93;8.15;;;25.90;99.90;;;;;;5031517;28;20041;-75
2023/06/11 08:41:29;;;;;;;7.35;6.15;;;25.90;99.90;;;;;;5032322;28;20026;-75
2023/06/11 08:43:56;;;;;;;7.30;6.53;;;26.10;99.90;;;;;;5014917;28;20048;-75
2023/06/11 08:46:23;;;;;;;9.23;8.32;;;26.40;99.90;;;;;;5030370;28;20033;-74
2023/06/11 08:48:54;;;;;;;8.82;8.10;;;26.40;99.90;;;;;;5048136;28;20040;-75
2023/06/11 08:51:20;;;;;;;7.80;7.10;;;26.30;99.90;;;;;;5041409;28;20485;-75
2023/06/11 08:53:46;;;;;;;7.75;6.20;;;26.20;99.90;;;;;;5031410;28;20037;-75
2023/06/11 08:56:12;;;;;;;8.93;8.05;;;26.30;99.90;;;;;;5031063;28;20025;-75
2023/06/11 08:58:40;;;;;;;8.60;7.88;;;26.30;99.90;;;;;;5031159;28;20033;-74
2023/06/11 09:01:12;;;;;;;9.27;8.38;;;26.40;99.90;;;;;;5030161;28;20048;-74
2023/06/11 09:03:38;;;;;;;8.52;7.70;;;26.30;99.90;;;;;;5031410;28;20462;-74
2023/06/11 09:06:05;;;;;;;4.95;4.55;;;26.10;99.90;;;;;;5032244;28;20052;-74
2023/06/11 09:08:31;;;;;;;5.95;5.35;;;25.70;99.90;;;;;;5031237;28;20025;-74
2023/06/11 09:10:57;;;;;;;8.10;5.20;;;25.70;99.90;;;;;;5014153;28;20041;-74
2023/06/11 09:13:27;;;;;;;4.90;4.50;;;25.80;99.90;;;;;;5030992;28;20379;-75
2023/06/11 09:15:55;;;;;;;6.43;5.45;;;25.60;99.90;;;;;;5013458;28;20045;-75
2023/06/11 09:18:30;;;;;;;5.20;4.70;;;25.70;99.90;;;;;;5031106;28;20033;-75
2023/06/11 09:20:57;;;;;;;7.07;5.50;;;25.80;99.90;;;;;;5030849;28;20025;-74
2023/06/11 09:23:31;;;;;;;7.53;5.80;;;26.00;99.90;;;;;;5031122;28;20033;-74
2023/06/11 09:26:00;;;;;;;8.32;5.25;;;26.00;99.90;;;;;;5030660;28;20378;-75
2023/06/11 09:28:33;;;;;;;6.55;5.57;;;25.80;99.90;;;;;;5063288;28;20367;-75
2023/06/11 09:31:00;;;;;;;6.05;4.95;;;25.70;99.90;;;;;;5039387;28;20471;-74
2023/06/11 09:33:27;;;;;;;6.90;5.00;;;25.60;99.90;;;;;;5043830;28;20022;-74
2023/06/11 09:35:53;;;;;;;6.03;5.05;;;25.50;99.90;;;;;;5047502;28;20022;-74
2023/06/11 09:38:20;;;;;;;6.60;5.07;;;25.50;99.90;;;;;;5030949;28;20025;-74
2023/06/11 09:40:51;;;;;;;7.47;5.40;;;25.90;99.90;;;;;;5034668;28;20404;-75
2023/06/11 09:43:23;;;;;;;7.80;6.30;;;26.10;99.90;;;;;;5034517;28;20041;-75
2023/06/11 09:45:54;;;;;;;8.98;7.15;;;26.30;99.90;;;;;;5033973;28;20036;-74
2023/06/11 09:48:20;;;;;;;;;;;26.20;99.90;;;;;;5047638;28;20387;-74
2023/06/11 09:50:50;;;;;;;6.85;4.85;;;25.90;99.90;;;;;;5050493;28;19909;-75
2023/06/11 09:53:21;;;;;;;7.00;6.10;;;26.00;99.90;;;;;;5035867;28;20025;-75
2023/06/11 09:55:50;;;;;;;5.80;5.30;;;26.40;99.90;;;;;;5034352;28;20029;-74
2023/06/11 09:58:22;;;;;;;7.57;6.97;;;26.30;99.90;;;;;;5035295;28;20030;-74
2023/06/11 10:00:58;;;;;;;6.82;6.32;;;26.40;99.90;;;;;;5017355;28;20034;-74
2023/06/11 10:03:24;;;;;;;7.10;6.60;;;26.60;99.90;;;;;;5034571;28;20097;-75
2023/06/11 10:05:51;;;;;;;6.25;5.38;;;26.90;99.90;;;;;;5034171;28;20455;-74
2023/06/11 10:08:21;;;;;;;4.20;3.85;;;27.00;99.90;;;;;;5034223;28;20033;-75
2023/06/11 10:10:54;;;;;;;5.15;4.57;;;27.10;99.90;;;;;;5034476;28;20024;-74
2023/06/11 10:13:33;;;;;;;6.60;6.00;;;26.90;99.90;;;;;;5034550;28;20036;-74
2023/06/11 10:16:03;;;;;;;6.03;4.60;;;26.80;99.90;;;;;;5033452;28;20536;-74
2023/06/11 10:18:30;;;;;;;7.03;6.43;;;26.60;99.90;;;;;;5034201;28;20038;-74
2023/06/11 10:21:02;;;;;;;4.78;4.22;;;26.60;99.90;;;;;;5016976;28;20184;-74
2023/06/11 10:23:40;;;;;;;5.40;4.82;;;26.80;99.90;;;;;;5034236;28;20569;-73
2023/06/11 10:26:07;;;;;;;4.63;4.15;;;27.10;99.90;;;;;;5033781;28;20026;-75
2023/06/11 10:28:42;;;;;;;5.30;4.90;;;27.40;99.90;;;;;;5050151;28;20028;-74
2023/06/11 10:31:08;;;;;;;5.32;3.72;;;27.60;99.90;;;;;;5049736;28;20030;-74
2023/06/11 10:33:36;;;;;;;6.43;3.67;;;27.40;99.90;;;;;;5067047;28;20040;-74
2023/06/11 10:36:02;;;;;;;3.95;3.53;;;27.50;99.90;;;;;;5034781;28;20093;-74
2023/06/11 10:38:29;;;;;;;4.93;3.80;;;27.60;99.90;;;;;;5033936;28;20040;-75
2023/06/11 10:41:02;;;;;;;7.47;4.15;;;27.70;99.90;;;;;;5034209;28;20410;-74
2023/06/11 10:43:28;;;;;;;5.05;4.55;;;27.70;99.90;;;;;;5033793;28;20025;-74
2023/06/11 10:46:02;;;;;;;5.22;4.72;;;27.70;99.90;;;;;;5032823;28;20063;-74
2023/06/11 10:48:29;;;;;;;5.00;4.22;;;27.40;99.90;;;;;;5048784;28;20049;-75
2023/06/11 10:51:02;;;;;;;5.10;4.10;;;27.40;99.90;;;;;;5045550;28;20032;-75
2023/06/11 10:53:56;;;;;;;5.93;4.45;;;27.50;99.90;;;;;;5033631;28;20022;-73
2023/06/11 10:56:23;;;;;;;4.00;3.47;;;27.70;99.90;;;;;;5030653;28;20041;-75
2023/06/11 10:58:50;;;;;;;4.25;3.80;;;27.90;99.90;;;;;;5033445;28;20034;-74
2023/06/11 11:01:20;;;;;;;5.60;3.72;;;28.00;99.90;;;;;;5033935;28;20070;-75
2023/06/11 11:03:49;;;;;;;4.88;3.90;;;28.20;99.90;;;;;;5033609;28;20030;-74
2023/06/11 11:06:25;;;;;;;6.15;4.32;;;28.00;99.90;;;;;;5033508;28;20025;-75
2023/06/11 11:08:52;;;;;;;6.20;4.15;;;28.10;99.90;;;;;;5033213;28;20032;-75
2023/06/11 11:11:18;;;;;;;5.15;4.55;;;28.00;99.90;;;;;;5032703;28;20486;-75
2023/06/11 11:13:45;;;;;;;4.80;4.35;;;28.20;99.90;;;;;;5033076;28;20033;-75
2023/06/11 11:16:11;;;;;;;4.80;4.40;;;28.20;99.90;;;;;;5032346;28;20044;-75
2023/06/11 11:18:38;;;;;;;5.95;5.45;;;28.20;99.90;;;;;;5016353;28;20041;-75
2023/06/11 11:21:04;;;;;;;5.13;4.63;;;28.10;99.90;;;;;;5032714;28;20037;-75
2023/06/11 11:23:33;;;;;;;4.95;4.55;;;28.10;99.90;;;;;;5033111;28;20032;-74
2023/06/11 11:25:59;;;;;;;6.25;5.15;;;28.00;99.90;;;;;;5032226;28;20036;-75
2023/06/11 11:28:26;;;;;;;5.30;4.70;;;28.10;99.90;;;;;;5049421;28;20021;-75
2023/06/11 11:30:53;;;;;;;5.05;4.65;;;28.20;99.90;;;;;;5048513;28;20036;-74
2023/06/11 11:33:19;;;;;;;5.28;4.88;;;28.10;99.90;;;;;;5032860;28;20032;-75
2023/06/11 11:35:49;;;;;;;4.78;4.47;;;28.20;99.90;;;;;;5015729;28;20045;-75
2023/06/11 11:38:15;;;;;;;5.80;5.32;;;28.40;99.90;;;;;;5065179;28;20467;-75
2023/06/11 11:40:41;;;;;;;5.93;5.43;;;28.50;99.90;;;;;;5033212;28;20390;-75
2023/06/11 11:43:12;;;;;;;5.10;4.60;;;28.40;99.90;;;;;;5032643;28;20037;-75
2023/06/11 11:45:38;;;;;;;6.35;5.90;;;28.60;99.90;;;;;;5031774;28;20034;-75
2023/06/11 11:48:07;;;;;;;6.35;5.85;;;28.80;99.90;;;;;;5042827;28;20052;-76
2023/06/11 11:50:33;;;;;;;5.70;5.20;;;28.70;99.90;;;;;;5049380;28;20040;-75
2023/06/11 11:53:18;;;;;;;5.63;5.13;;;28.60;99.90;;;;;;5032339;28;20498;-75
2023/06/11 11:55:45;;;;;;;5.65;5.15;;;28.60;99.90;;;;;;5033301;28;20021;-75
2023/06/11 11:58:17;;;;;;;6.88;4.95;;;28.60;99.90;;;;;;5033528;28;20033;-75
2023/06/11 12:00:53;;;;;;;5.95;5.32;;;28.60;99.90;;;;;;5031459;28;20033;-75
2023/06/11 12:03:22;;;;;;;7.45;6.95;;;28.70;99.90;;;;;;5015348;28;20034;-75
2023/06/11 12:06:00;;;;;;;6.03;5.63;;;28.80;99.70;;;;;;5032043;28;20033;-74
2023/06/11 12:08:27;;;;;;;6.63;6.05;;;28.90;99.90;;;;;;5031879;28;20029;-75
2023/06/11 12:10:54;;;;;;;7.32;6.63;;;29.20;99.90;;;;;;5031814;28;20033;-75
2023/06/11 12:13:20;;;;;;;7.13;6.63;;;29.40;99.80;;;;;;5032124;28;20030;-75
2023/06/11 12:15:46;;;;;;;5.57;5.18;;;29.30;97.80;;;;;;5031330;28;20037;-75
2023/06/11 12:18:13;;;;;;;6.32;5.80;;;29.00;98.00;;;;;;5031934;28;20097;-76
2023/06/11 12:20:39;;;;;;;5.47;5.07;;;28.60;99.00;;;;;;5014855;28;20490;-75
2023/06/11 12:23:05;;;;;;;5.95;5.57;;;28.60;99.20;;;;;;5032626;28;20037;-75
2023/06/11 12:25:32;;;;;;;6.93;5.93;;;28.50;99.30;;;;;;5031335;28;20029;-75
2023/06/11 12:27:59;;;;;;;6.93;6.32;;;28.60;99.80;;;;;;5033039;28;20056;-75
2023/06/11 12:30:25;;;;;;;7.55;6.95;;;28.60;97.90;;;;;;5064263;28;20026;-75
2023/06/11 12:32:52;;;;;;;6.40;5.88;;;28.70;98.20;;;;;;5031613;28;20041;-75
2023/06/11 12:35:18;;;;;;;5.68;5.28;;;28.70;97.80;;;;;;5031587;28;20026;-75
2023/06/11 12:37:47;;;;;;;6.82;6.32;;;28.70;98.40;;;;;;5031232;28;20041;-75
2023/06/11 12:40:13;;;;;;;7.20;6.70;;;28.70;97.60;;;;;;5032326;28;20029;-75
2023/06/11 12:42:39;;;;;;;7.03;6.55;;;28.80;98.40;;;;;;5031499;28;20037;-75
2023/06/11 12:45:06;;;;;;;6.32;5.93;;;28.90;97.80;;;;;;5031004;28;20378;-76